Forside
METAR-TAF:

METAR-TAF

Lufthavne :

Deauville, Frankrig

Breddekreds: 49-21-55N, længdekreds: 000-09-16E, højde: 146 m

Aktuelle vejr

Denne rapport blev lavet for 21 minutter siden, kl. 23:00 UTC
Vind 5 kt fra syd
Temperatur 11°C
Fugtighed 87%
Tryk 1005 hPa
Sigt 10 km eller mere
ingen skyer under 1500m og ingen cumulonimbus

METAR: LFRG 082300Z AUTO 17005KT CAVOK 11/09 Q1005

Tid: 01:21 (23:21 UTC)

Vejrudsigter

Denne rapport blev lavet for 9 timer og 21 minutter siden, kl. 14:00 UTC
Foreløbig gælder fra 08 på 15 UTC til 08 på 24 UTC
Vind 15 kt fra sydsydvest med vindstød på up til 30 kt
Sigt 10 km eller mere
Spredte skyer i en højde af 3000 ft
ændring
fra 08 på 18 UTC til 08 på 20 UTC
Vind 10 kt fra syd

TAF: LFRG 081400Z 0815/0824 21015G30KT 9999 SCT030 BECMG 0818/0820 19010KT

Vejrobservationer og prognoser fra mere end 4000 lufthavne (METAR og TAF).

De gule og røde prikker repræsenterer de meteorologiske stationer.

Flyt musen over at se navnet på stationen.

Så klik over at se vejr observationer og prognoser.

At skifte det kort: Klik på de grønne knapper med et sort kors for at zoome ind; på den grønne knap med en bindestreg for at zoome ud; eller på de grønne pile for tilstødende kort.


METAR-TAF: